AirNav   Pilot Hours Calculator
 
 844 users online  

11FD North Okaloosa Medical Center Heliport
Crestview, Florida, USA

GOING TO CRESTVIEW?


FAA INFORMATION EFFECTIVE 02 JANUARY 2020

Location

FAA Identifier: 11FD
Lat/Long: 30-44-05.3600N 086-33-44.2700W
30-44.089333N 086-33.737833W
30.7348222,-86.5622972
(estimated)
Elevation: 230 ft. / 70 m (estimated)
Variation: 01E (1985)
From city: 1 mile N of CRESTVIEW, FL
Time zone: UTC -6 (UTC -5 during Daylight Saving Time)
Zip code: 32536

Heliport Operations

Heliport use: Private use, MEDICAL USE.
Activation date: 06/1991
Control tower: no
ARTCC: JACKSONVILLE CENTER
FSS: GAINESVILLE FLIGHT SERVICE STATION
Attendance: UNATNDD
Wind indicator: yes
Segmented circle: no

Heliport Communications

WX ASOS at CEW (3 nm NE): 119.275 (850-682-1237)

Nearby radio navigation aids

VOR radial/distance  VOR name  Freq  Var
CEWr129/8.1CRESTVIEW VORTAC115.9003E

 
NDB name  Hdg/Dist  Freq  Var  ID
KOBRA195/7.220104WCE -.-. .
JUDD196/35.326402WJUY .--- ..- -.--
PICKENS063/36.532602WPKZ .--. -.- --..

Heliport Services

Runway Information

Helipad H1

Dimensions: 30 x 22 ft. / 9 x 7 m
Surface: asphalt, in good condition
Latitude: 30-44.089333N
Longitude: 086-33.737833W
Elevation: 230.0 ft.
Traffic pattern: leftleft

Heliport Ownership and Management from official FAA records

Ownership: Privately-owned
Owner: NORTH OKALOOSA MEDICAL CENTER
151 REDSTONE AVE
CRESTVIEW, FL 32539
Phone 850-689-8162
Manager: BRAD JOHNSON
151 REDSTONE AVE
CRESTVIEW, FL 32539
Phone 850-689-8162
ADMINISTRATOR. ADDITIONAL CONTACT: DARLENE JONES 850-689-8201 DARLENE_JONES@CHS.NET

Additional Remarks

FOR CD CTC EGLIN APCH 850-882-9152 OR 850-882-9151.

Instrument Procedures

There are no published instrument procedures at 11FD.

Some nearby airports with instrument procedures:

KCEW - Bob Sikes Airport (3 nm NE)
KEGI - Duke Field (Eglin AF Aux Nr 3) Airport (6 nm S)
KVPS - Eglin Air Force Base/Destin-Fort Walton Beach Airport (15 nm S)
KHRT - Hurlburt Field Airport (19 nm S)
KDTS - Destin Executive Airport (21 nm S)
 
Loc | Ops | Rwys | IFR | FBO | Links
Com | Nav | Svcs | Stats | Notes

Continental Services
AirBoss

 
Area around 11FD (North Okaloosa Medical Center Heliport)
 
Road maps at: MapQuest Bing Google
 
Aerial photo
No photo
 
Sectional chart

 
Airport distance calculator
Flying to North Okaloosa Medical Center Heliport? Find the distance to fly.

From to 11FD

Sunrise and sunset
Times for 21-Jan-2020
 Local
(UTC-6)
 Zulu
(UTC)
Morning civil twilight06:1812:18
Sunrise06:4412:44
Sunset17:1123:11
Evening civil twilight17:3723:37

Current date and time
Zulu (UTC)  21-Jan-2020 12:35:42
Local (UTC-6)  21-Jan-2020 06:35:42
 
METAR
KCEW 
3nm NE 
211153Z AUTO 36008KT 10SM CLR M02/M07 A3047 RMK AO2 SLP319 T10221072 10000 21028 52022
KEGI 
7nm S 
211156Z AUTO 35008KT 10SM CLR M03/M07 A3044 RMK AO2 SLP311 T10261066 11008 21026 52019 $
KVPS 
16nm S 
211156Z AUTO 34005KT 10SM CLR M02/M07 A3043 RMK AO2 SLP312 T10221066 10006 21022 52018 $
KHRT 
20nm S 
211156Z AUTO 36009KT 10SM CLR M02/M06 A3043 RMK AO2 SLP307 T10231065 10006 21023 52017 $
TAF
KEGI 
7nm S 
211000Z 2110/2216 35009KT 9999 SKC QNH3037INS BECMG 2111/2112 36012G18KT 9999 SKC 530009 QNH3034INS BECMG 2117/2118 01012G20KT 9999 FEW250 QNH3032INS BECMG 2201/2202 01009KT 9999 SKC QNH3030INS BECMG 2212/2213 07009KT 9999 SCT250 QNH3026INS TX07/2120Z TNM03/2112Z LAST NO AMDS AFT 2110 NEXT 2113
KVPS 
16nm S 
211000Z 2110/2216 36012KT 9999 SKC QNH3035INS BECMG 2113/2114 36012G18KT 9999 SKC 530009 QNH3036INS WND 01010KT AFT 2123 BECMG 2213/2214 03009KT 9999 FEW030 QNH3040INS TX07/2121Z TNM03/2212Z
KHRT 
20nm S 
211000Z 2110/2216 36010G15KT 9999 FEW250 QNH3036INS BECMG 2114/2115 36012G18KT 9999 SKC QNH3038INS BECMG 2118/2119 36012KT 9999 SKC QNH3034INS TX09/2119Z TNM01/2110Z
NOTAMs
Click for the latest NOTAMs
NOTAMs are issued by the DoD/FAA and will open in a separate window not controlled by AirNav.

 

 
 

Would you like to see your business listed on this page?

 If your business provides an interesting product or service to pilots, flight crews, aircraft, or users of the North Okaloosa Medical Center Heliport, you should consider listing it here.  To start the listing process, click on the button below
 
Add a business
 

Other Pages about North Okaloosa Medical Center Heliport

Update a link
 
Copyright © AirNav, LLC. All rights reserved. Privacy Policy  Contact